createdAt,value
2023-05-12T00:01:42.614Z,19.58
2023-05-12T00:04:44.139Z,19.58
2023-05-12T00:07:45.659Z,19.57
2023-05-12T00:10:47.273Z,19.58
2023-05-12T00:13:48.910Z,19.55
2023-05-12T00:16:52.049Z,19.54
2023-05-12T00:19:54.472Z,19.54
2023-05-12T00:22:55.993Z,19.52
2023-05-12T00:25:57.540Z,19.52
2023-05-12T00:28:59.022Z,19.51
2023-05-12T00:32:01.161Z,19.50
2023-05-12T00:35:02.916Z,19.49
2023-05-12T00:38:04.588Z,19.48
2023-05-12T00:41:06.154Z,19.48
2023-05-12T00:44:07.946Z,19.47
2023-05-12T00:47:09.640Z,19.47
2023-05-12T00:50:11.694Z,19.46
2023-05-12T00:53:13.350Z,19.46
2023-05-12T00:56:16.804Z,19.46
2023-05-12T00:59:18.380Z,19.45
2023-05-12T01:02:20.256Z,19.45
2023-05-12T01:05:21.985Z,19.45
2023-05-12T01:08:24.700Z,19.46
2023-05-12T01:11:26.858Z,19.43
2023-05-12T01:14:28.381Z,19.44
2023-05-12T01:17:36.029Z,19.45
2023-05-12T01:20:42.722Z,19.44
2023-05-12T01:23:52.010Z,19.45
2023-05-12T01:26:53.543Z,19.41
2023-05-12T01:29:59.931Z,19.44
2023-05-12T01:33:02.285Z,19.42
2023-05-12T01:36:04.517Z,19.42
2023-05-12T01:39:06.003Z,19.42
2023-05-12T01:42:07.591Z,19.41
2023-05-12T01:45:09.728Z,19.41
2023-05-12T01:48:11.312Z,19.40
2023-05-12T01:51:12.830Z,19.40
2023-05-12T01:54:14.616Z,19.40
2023-05-12T01:57:16.091Z,19.40
2023-05-12T02:03:22.150Z,19.39
2023-05-12T02:06:23.750Z,19.40
2023-05-12T02:09:25.439Z,19.39
2023-05-12T02:12:31.044Z,19.39
2023-05-12T02:15:32.735Z,19.39
2023-05-12T02:18:34.375Z,19.39
2023-05-12T02:21:36.042Z,19.38
2023-05-12T02:24:37.819Z,19.37
2023-05-12T02:27:39.590Z,19.38
2023-05-12T02:30:49.405Z,19.39
2023-05-12T02:33:51.590Z,19.37
2023-05-12T02:36:54.108Z,19.37
2023-05-12T02:39:55.720Z,19.37
2023-05-12T02:42:58.403Z,19.37
2023-05-12T02:46:00.255Z,19.34
2023-05-12T02:49:02.384Z,19.36
2023-05-12T02:52:04.361Z,19.36
2023-05-12T02:55:06.050Z,19.35
2023-05-12T02:58:08.039Z,19.33
2023-05-12T03:01:11.558Z,19.33
2023-05-12T03:04:14.505Z,19.32
2023-05-12T03:07:16.121Z,19.33
2023-05-12T03:10:18.764Z,19.34
2023-05-12T03:13:20.543Z,19.33
2023-05-12T03:16:22.390Z,19.31
2023-05-12T03:19:24.219Z,19.32
2023-05-12T03:22:26.063Z,19.32
2023-05-12T03:25:27.701Z,19.32
2023-05-12T03:28:29.262Z,19.31
2023-05-12T03:31:30.837Z,19.29
2023-05-12T03:34:32.367Z,19.29
2023-05-12T03:37:34.471Z,19.29
2023-05-12T03:40:36.716Z,19.28
2023-05-12T03:43:38.271Z,19.28
2023-05-12T03:46:39.974Z,19.28
2023-05-12T03:49:41.563Z,19.28
2023-05-12T03:52:43.330Z,19.27
2023-05-12T03:55:44.778Z,19.27
2023-05-12T03:58:47.270Z,19.28
2023-05-12T04:01:50.556Z,19.27
2023-05-12T04:04:52.705Z,19.26
2023-05-12T04:07:54.957Z,19.26
2023-05-12T04:11:01.359Z,19.27
2023-05-12T04:14:02.730Z,19.25
2023-05-12T04:17:04.480Z,19.25
2023-05-12T04:20:07.256Z,19.26
2023-05-12T04:23:08.690Z,19.23
2023-05-12T04:26:10.202Z,19.24
2023-05-12T04:29:13.224Z,19.24
2023-05-12T04:32:15.384Z,19.24
2023-05-12T04:35:17.022Z,19.25
2023-05-12T04:38:18.651Z,19.24
2023-05-12T04:41:20.785Z,19.24
2023-05-12T04:44:22.959Z,19.23
2023-05-12T04:47:26.099Z,19.23
2023-05-12T04:50:27.660Z,19.23
2023-05-12T04:53:29.189Z,19.23
2023-05-12T04:56:30.626Z,19.23
2023-05-12T04:59:32.621Z,19.23
2023-05-12T05:02:34.628Z,19.23
2023-05-12T05:05:36.199Z,19.23
2023-05-12T05:08:38.981Z,19.24
2023-05-12T05:11:40.612Z,19.23
2023-05-12T05:14:42.144Z,19.24
2023-05-12T05:17:44.416Z,19.23
2023-05-12T05:20:54.668Z,19.23
2023-05-12T05:23:59.495Z,19.22
2023-05-12T05:27:01.124Z,19.22
2023-05-12T05:30:02.804Z,19.23
2023-05-12T05:33:05.249Z,19.22
2023-05-12T05:36:07.824Z,19.21
2023-05-12T05:39:10.437Z,19.19
2023-05-12T05:42:12.048Z,19.19
2023-05-12T05:45:13.629Z,19.18
2023-05-12T05:48:15.852Z,19.17
2023-05-12T05:51:17.465Z,19.16
2023-05-12T05:54:18.997Z,19.15
2023-05-12T05:57:21.288Z,19.15
2023-05-12T06:00:23.719Z,19.15
2023-05-12T06:03:27.564Z,19.13
2023-05-12T06:06:29.687Z,19.11
2023-05-12T06:09:32.252Z,19.10
2023-05-12T06:12:33.762Z,19.07
2023-05-12T06:15:35.684Z,19.07
2023-05-12T06:18:38.254Z,19.04
2023-05-12T06:21:39.929Z,19.04
2023-05-12T06:24:41.927Z,19.04
2023-05-12T06:27:44.620Z,19.03
2023-05-12T06:30:46.531Z,19.02
2023-05-12T06:33:48.053Z,19.01
2023-05-12T06:36:49.648Z,19.02
2023-05-12T06:39:51.889Z,18.97
2023-05-12T06:42:53.458Z,18.97
2023-05-12T06:45:56.715Z,18.95
2023-05-12T06:49:00.147Z,18.92
2023-05-12T06:52:01.751Z,18.91
2023-05-12T06:55:03.473Z,18.92
2023-05-12T06:58:05.011Z,18.89
2023-05-12T07:01:06.560Z,18.87
2023-05-12T07:04:08.124Z,18.83
2023-05-12T07:07:09.735Z,18.81
2023-05-12T07:10:11.572Z,18.77
2023-05-12T07:13:13.195Z,18.73
2023-05-12T07:16:15.844Z,18.72
2023-05-12T07:19:17.445Z,18.72
2023-05-12T07:22:21.223Z,18.73
2023-05-12T07:25:23.171Z,18.74
2023-05-12T07:28:24.980Z,18.74
2023-05-12T07:31:26.528Z,18.76
2023-05-12T07:34:28.095Z,18.77
2023-05-12T07:37:29.851Z,18.77
2023-05-12T07:40:31.357Z,18.78
2023-05-12T07:43:32.903Z,18.77
2023-05-12T07:46:34.408Z,18.78
2023-05-12T07:49:35.900Z,18.78
2023-05-12T07:52:37.381Z,18.76
2023-05-12T07:55:38.909Z,18.75
2023-05-12T07:58:40.576Z,18.73
2023-05-12T08:01:42.919Z,18.71
2023-05-12T08:04:44.568Z,18.68
2023-05-12T08:07:46.276Z,18.68
2023-05-12T08:10:47.791Z,18.69
2023-05-12T08:13:49.304Z,18.69
2023-05-12T08:16:50.979Z,18.69
2023-05-12T08:19:55.359Z,18.68
2023-05-12T08:22:56.886Z,18.69
2023-05-12T08:25:58.431Z,18.69
2023-05-12T08:29:00.006Z,18.69
2023-05-12T08:32:03.329Z,18.70
2023-05-12T08:35:05.335Z,18.69
2023-05-12T08:38:07.289Z,18.69
2023-05-12T08:41:20.087Z,18.71
2023-05-12T08:44:23.849Z,18.72
2023-05-12T08:47:26.224Z,18.73
2023-05-12T08:50:30.960Z,18.75
2023-05-12T08:53:35.151Z,18.75
2023-05-12T08:59:44.426Z,18.76
2023-05-12T09:02:53.848Z,18.74
2023-05-12T09:05:58.189Z,18.73
2023-05-12T09:09:00.244Z,18.73
2023-05-12T09:12:03.081Z,18.74
2023-05-12T09:15:07.861Z,18.74
2023-05-12T09:18:09.378Z,18.75
2023-05-12T09:21:11.842Z,18.77
2023-05-12T09:24:13.437Z,18.78
2023-05-12T09:27:24.656Z,18.79
2023-05-12T09:30:31.548Z,18.78
2023-05-12T09:33:36.063Z,18.78
2023-05-12T09:36:37.646Z,18.75
2023-05-12T09:39:39.247Z,18.73
2023-05-12T09:42:42.406Z,18.71
2023-05-12T09:45:44.293Z,18.69
2023-05-12T09:48:48.826Z,18.69
2023-05-12T09:51:55.889Z,18.67
2023-05-12T09:54:57.391Z,18.65
2023-05-12T09:58:02.081Z,18.67
2023-05-12T10:04:09.356Z,18.62
2023-05-12T10:07:14.154Z,18.61
2023-05-12T10:10:18.682Z,18.61
2023-05-12T10:13:20.288Z,18.60
2023-05-12T10:16:22.428Z,18.61
2023-05-12T10:19:25.614Z,18.60
2023-05-12T10:22:29.801Z,18.60
2023-05-12T10:25:32.556Z,18.60
2023-05-12T10:28:34.103Z,18.59
2023-05-12T10:31:37.334Z,18.61
2023-05-12T10:34:41.880Z,18.60
2023-05-12T10:37:44.429Z,18.61
2023-05-12T10:40:57.946Z,18.65
2023-05-12T10:43:59.698Z,18.65
2023-05-12T10:47:01.546Z,18.63
2023-05-12T10:50:03.202Z,18.64
2023-05-12T10:53:04.812Z,18.64
2023-05-12T10:56:06.927Z,18.65
2023-05-12T10:59:19.728Z,18.67
2023-05-12T11:02:29.933Z,18.68
2023-05-12T11:05:35.519Z,18.68
2023-05-12T11:08:37.925Z,18.67
2023-05-12T11:11:40.377Z,18.67
2023-05-12T11:14:43.895Z,18.68
2023-05-12T11:17:46.418Z,18.68
2023-05-12T11:20:48.426Z,18.70
2023-05-12T11:23:51.056Z,18.72
2023-05-12T11:26:52.531Z,18.74
2023-05-12T11:30:02.565Z,18.76
2023-05-12T11:33:04.406Z,18.77
2023-05-12T11:36:06.710Z,18.79
2023-05-12T11:39:16.774Z,18.81
2023-05-12T11:42:21.070Z,18.82
2023-05-12T11:45:25.069Z,18.83
2023-05-12T11:48:34.562Z,18.88
2023-05-12T11:51:36.221Z,18.90
2023-05-12T11:54:37.765Z,18.92
2023-05-12T11:57:39.496Z,18.94
2023-05-12T12:00:42.047Z,18.95
2023-05-12T12:03:48.713Z,18.96
2023-05-12T12:06:51.555Z,18.97
2023-05-12T12:09:53.010Z,18.99
2023-05-12T12:12:54.541Z,19.00
2023-05-12T12:15:56.047Z,19.01
2023-05-12T12:18:58.298Z,19.02
2023-05-12T12:21:59.939Z,19.02
2023-05-12T12:25:02.467Z,19.06
2023-05-12T12:28:05.109Z,19.05
2023-05-12T12:31:06.681Z,19.05
2023-05-12T12:34:08.456Z,19.07
2023-05-12T12:37:10.047Z,19.06
2023-05-12T12:40:11.850Z,19.04
2023-05-12T12:43:13.878Z,19.03
2023-05-12T12:46:15.416Z,19.04
2023-05-12T12:49:16.903Z,19.01
2023-05-12T12:52:18.634Z,19.02
2023-05-12T12:55:20.990Z,19.02
2023-05-12T12:58:23.255Z,19.01
2023-05-12T13:01:24.855Z,19.00
2023-05-12T13:04:26.808Z,19.00
2023-05-12T13:07:28.363Z,18.99
2023-05-12T13:10:30.145Z,19.00
2023-05-12T13:13:31.679Z,19.00
2023-05-12T13:16:33.356Z,19.02
2023-05-12T13:19:37.753Z,19.01
2023-05-12T13:22:40.731Z,19.03
2023-05-12T13:25:44.790Z,19.04
2023-05-12T13:28:46.263Z,19.04
2023-05-12T13:31:47.772Z,19.05
2023-05-12T13:34:49.266Z,19.04
2023-05-12T13:37:50.734Z,19.03
2023-05-12T13:40:52.439Z,19.03
2023-05-12T13:43:53.903Z,19.02
2023-05-12T13:46:55.392Z,19.02
2023-05-12T13:49:57.276Z,19.03
2023-05-12T13:52:58.756Z,19.02
2023-05-12T13:56:00.242Z,19.02
2023-05-12T13:59:01.800Z,19.02
2023-05-12T14:02:03.982Z,19.03
2023-05-12T14:05:05.934Z,19.01
2023-05-12T14:08:07.407Z,19.01
2023-05-12T14:11:09.064Z,19.01
2023-05-12T14:14:10.618Z,18.99
2023-05-12T14:17:12.473Z,18.99
2023-05-12T14:20:14.944Z,18.99
2023-05-12T14:23:16.594Z,18.99
2023-05-12T14:26:19.245Z,18.99
2023-05-12T14:29:21.132Z,18.98
2023-05-12T14:32:22.683Z,18.98
2023-05-12T14:35:27.446Z,18.98
2023-05-12T14:38:29.385Z,18.98
2023-05-12T14:41:30.912Z,18.97
2023-05-12T14:44:32.516Z,18.97
2023-05-12T14:47:34.047Z,18.95
2023-05-12T14:50:35.703Z,18.96
2023-05-12T14:53:37.196Z,18.96
2023-05-12T14:56:38.678Z,18.96
2023-05-12T14:59:40.188Z,18.97
2023-05-12T15:02:43.860Z,19.00
2023-05-12T15:06:04.683Z,19.00
2023-05-12T15:09:08.399Z,18.99
2023-05-12T15:12:10.210Z,18.98
2023-05-12T15:15:12.187Z,18.98
2023-05-12T15:18:13.744Z,18.97
2023-05-12T15:21:15.297Z,18.97
2023-05-12T15:24:16.822Z,18.97
2023-05-12T15:27:18.317Z,18.98
2023-05-12T15:30:19.912Z,18.98
2023-05-12T15:33:21.426Z,18.98
2023-05-12T15:36:23.032Z,18.99
2023-05-12T15:39:24.599Z,18.99
2023-05-12T15:42:32.572Z,18.99
2023-05-12T15:45:37.780Z,18.99
2023-05-12T15:48:39.690Z,18.99
2023-05-12T15:51:41.290Z,18.99
2023-05-12T15:54:42.734Z,19.00
2023-05-12T15:57:44.320Z,19.00
2023-05-12T16:00:46.441Z,18.99
2023-05-12T16:03:49.813Z,19.00
2023-05-12T16:06:51.339Z,19.00
2023-05-12T16:09:52.827Z,19.01
2023-05-12T16:12:54.326Z,19.02
2023-05-12T16:15:55.796Z,19.03
2023-05-12T16:18:57.329Z,19.01
2023-05-12T16:21:59.931Z,19.01
2023-05-12T16:25:01.515Z,19.02
2023-05-12T16:28:03.863Z,19.03
2023-05-12T16:31:05.573Z,19.02
2023-05-12T16:34:07.438Z,19.02
2023-05-12T16:37:09.104Z,19.03
2023-05-12T16:40:10.833Z,19.02
2023-05-12T16:43:12.369Z,19.02
2023-05-12T16:46:13.953Z,19.02
2023-05-12T16:49:15.482Z,19.01
2023-05-12T16:52:16.967Z,19.01
2023-05-12T16:55:18.874Z,19.01
2023-05-12T16:58:20.961Z,19.00
2023-05-12T17:01:22.502Z,18.99
2023-05-12T17:04:24.005Z,19.00
2023-05-12T17:07:26.331Z,19.00
2023-05-12T17:10:27.812Z,19.00
2023-05-12T17:13:29.276Z,18.98
2023-05-12T17:16:30.783Z,18.98
2023-05-12T17:19:33.007Z,18.98
2023-05-12T17:22:37.155Z,18.98
2023-05-12T17:25:39.621Z,18.99
2023-05-12T17:28:41.133Z,18.98
2023-05-12T17:31:42.923Z,18.99
2023-05-12T17:34:44.449Z,18.98
2023-05-12T17:37:45.967Z,19.01
2023-05-12T17:40:47.505Z,19.01
2023-05-12T17:43:49.009Z,19.01
2023-05-12T17:46:50.599Z,19.02
2023-05-12T17:49:52.416Z,19.03
2023-05-12T17:52:55.034Z,19.02
2023-05-12T17:55:57.149Z,19.03
2023-05-12T17:58:58.613Z,19.03
2023-05-12T18:02:00.439Z,19.06
2023-05-12T18:05:01.986Z,19.05
2023-05-12T18:08:03.553Z,19.06
2023-05-12T18:11:05.080Z,19.06
2023-05-12T18:14:07.104Z,19.07
2023-05-12T18:17:08.621Z,19.07
2023-05-12T18:20:10.479Z,19.09
2023-05-12T18:23:11.980Z,19.09
2023-05-12T18:26:13.547Z,19.10
2023-05-12T18:29:15.044Z,19.10
2023-05-12T18:32:16.719Z,19.11
2023-05-12T18:35:18.301Z,19.13
2023-05-12T18:38:19.818Z,19.14
2023-05-12T18:41:21.575Z,19.15
2023-05-12T18:44:23.178Z,19.16
2023-05-12T18:47:24.742Z,19.16
2023-05-12T18:50:26.458Z,19.18
2023-05-12T18:53:28.049Z,19.18
2023-05-12T18:56:29.719Z,19.20
2023-05-12T18:59:31.310Z,19.20
2023-05-12T19:02:32.889Z,19.23
2023-05-12T19:05:35.039Z,19.24
2023-05-12T19:08:36.602Z,19.25
2023-05-12T19:11:38.082Z,19.25
2023-05-12T19:14:40.548Z,19.28
2023-05-12T19:17:42.091Z,19.27
2023-05-12T19:20:43.601Z,19.28
2023-05-12T19:23:45.189Z,19.29
2023-05-12T19:26:46.678Z,19.30
2023-05-12T19:29:48.705Z,19.30
2023-05-12T19:32:50.331Z,19.31
2023-05-12T19:35:52.421Z,19.32
2023-05-12T19:38:53.880Z,19.31
2023-05-12T19:41:55.450Z,19.33
2023-05-12T19:44:57.603Z,19.33
2023-05-12T19:47:59.280Z,19.36
2023-05-12T19:51:00.788Z,19.37
2023-05-12T19:54:04.705Z,19.36
2023-05-12T19:57:06.326Z,19.38
2023-05-12T20:00:08.444Z,19.37
2023-05-12T20:03:17.521Z,19.37
2023-05-12T20:06:20.196Z,19.37
2023-05-12T20:09:23.088Z,19.39
2023-05-12T20:12:24.532Z,19.38
2023-05-12T20:15:26.062Z,19.39
2023-05-12T20:18:28.741Z,19.39
2023-05-12T20:21:31.337Z,19.39
2023-05-12T20:24:32.851Z,19.40
2023-05-12T20:27:34.313Z,19.40
2023-05-12T20:30:36.156Z,19.41
2023-05-12T20:33:37.626Z,19.40
2023-05-12T20:36:39.115Z,19.40
2023-05-12T20:39:41.603Z,19.41
2023-05-12T20:42:45.729Z,19.42
2023-05-12T20:45:47.316Z,19.41
2023-05-12T20:48:48.785Z,19.42
2023-05-12T20:51:50.424Z,19.42
2023-05-12T20:55:01.207Z,19.45
2023-05-12T20:58:02.764Z,19.44
2023-05-12T21:01:04.263Z,19.44
2023-05-12T21:04:05.891Z,19.45
2023-05-12T21:07:07.415Z,19.47
2023-05-12T21:10:09.134Z,19.50
2023-05-12T21:13:10.580Z,19.51
2023-05-12T21:16:12.067Z,19.53
2023-05-12T21:19:13.578Z,19.56
2023-05-12T21:22:15.606Z,19.55
2023-05-12T21:25:17.434Z,19.55
2023-05-12T21:28:19.006Z,19.57
2023-05-12T21:31:20.559Z,19.57
2023-05-12T21:34:22.110Z,19.57
2023-05-12T21:37:23.590Z,19.57
2023-05-12T21:40:25.082Z,19.58
2023-05-12T21:43:26.599Z,19.58
2023-05-12T21:46:28.102Z,19.58
2023-05-12T21:49:29.686Z,19.58
2023-05-12T21:52:31.171Z,19.58
2023-05-12T21:55:32.723Z,19.60
2023-05-12T21:58:34.242Z,19.59
2023-05-12T22:01:35.851Z,19.59
2023-05-12T22:04:37.371Z,19.60
2023-05-12T22:07:38.864Z,19.60
2023-05-12T22:10:40.440Z,19.61
2023-05-12T22:13:42.037Z,19.60
2023-05-12T22:16:43.503Z,19.60
2023-05-12T22:19:44.991Z,19.61
2023-05-12T22:22:46.506Z,19.61
2023-05-12T22:25:48.044Z,19.61
2023-05-12T22:28:49.528Z,19.62
2023-05-12T22:31:51.048Z,19.61
2023-05-12T22:34:53.530Z,19.62
2023-05-12T22:37:55.043Z,19.62
2023-05-12T22:40:56.494Z,19.63
2023-05-12T22:43:57.950Z,19.63
2023-05-12T22:46:59.528Z,19.62
2023-05-12T22:50:01.265Z,19.62
2023-05-12T22:53:02.729Z,19.61
2023-05-12T22:56:04.477Z,19.62
2023-05-12T22:59:05.931Z,19.63
2023-05-12T23:02:07.432Z,19.63
2023-05-12T23:05:09.612Z,19.63
2023-05-12T23:08:11.097Z,19.64
2023-05-12T23:11:12.853Z,19.63
2023-05-12T23:14:14.351Z,19.64
2023-05-12T23:17:15.893Z,19.64
2023-05-12T23:20:17.352Z,19.64
2023-05-12T23:23:18.796Z,19.63
2023-05-12T23:26:20.701Z,19.63
2023-05-12T23:29:22.154Z,19.63
2023-05-12T23:32:23.779Z,19.64
2023-05-12T23:35:26.117Z,19.64
2023-05-12T23:38:27.589Z,19.65
2023-05-12T23:41:31.664Z,19.64
2023-05-12T23:44:33.216Z,19.64
2023-05-12T23:47:34.722Z,19.64
2023-05-12T23:50:36.206Z,19.63
2023-05-12T23:53:37.682Z,19.65
2023-05-12T23:56:39.216Z,19.64
2023-05-12T23:59:40.674Z,19.64
